Llanbrynmair, United Kingdom
Current Conditions -  °F | °C
As of 3:50 AM on Wednesday 26 Nov 2014 (Local Time) from EGOS Reporting Station
Moderate Rain Moderate Rain  
Wind Chill: 36°   Ceiling: 1000
Heat Index: 41°   Visibility: 1.1mi
Dew Point: 41°   Wind: 7mph
Humidity: 100%   Direction: 340°NNW
Pressure: 29.94"   Gusts: NA
Location:  52.61°N, 3.63°W
Report Text: EGOS 260350Z AUTO 34006KT 1900 RA OVC010/// 05/05 Q1014
Loading
Personal Weather Stations






























Interactive Weather Map New forecast layout! Learn more

10-Day Weather Forecast

Advertisements
Track Severe Weather on mobile